sensor_id;sensor_type;location;lat;lon;timestamp;temperature;humidity
3794;DHT22;1912;51.358;12.282;2023-07-02T03:47:15;17.50;1.00
3794;DHT22;1912;51.358;12.282;2023-07-02T03:49:41;17.40;1.00
3794;DHT22;1912;51.358;12.282;2023-07-02T03:52:07;17.50;1.00
3794;DHT22;1912;51.358;12.282;2023-07-02T03:54:33;17.50;1.00
3794;DHT22;1912;51.358;12.282;2023-07-02T03:56:58;17.50;1.00
3794;DHT22;1912;51.358;12.282;2023-07-02T03:59:24;17.40;1.00
3794;DHT22;1912;51.358;12.282;2023-07-02T04:01:50;17.40;1.00
3794;DHT22;1912;51.358;12.282;2023-07-02T04:04:16;17.40;1.00
3794;DHT22;1912;51.358;12.282;2023-07-02T04:06:42;17.40;1.00
3794;DHT22;1912;51.358;12.282;2023-07-02T04:09:07;17.40;1.00
3794;DHT22;1912;51.358;12.282;2023-07-02T04:11:33;17.40;1.00
3794;DHT22;1912;51.358;12.282;2023-07-02T04:13:59;17.40;1.00
3794;DHT22;1912;51.358;12.282;2023-07-02T04:16:24;17.50;1.00
3794;DHT22;1912;51.358;12.282;2023-07-02T04:18:50;17.50;1.00
3794;DHT22;1912;51.358;12.282;2023-07-02T04:21:16;17.50;1.00
3794;DHT22;1912;51.358;12.282;2023-07-02T04:23:41;17.50;1.00
3794;DHT22;1912;51.358;12.282;2023-07-02T04:26:07;17.60;1.00
3794;DHT22;1912;51.358;12.282;2023-07-02T04:28:32;17.60;1.00
3794;DHT22;1912;51.358;12.282;2023-07-02T04:30:58;17.60;1.00
3794;DHT22;1912;51.358;12.282;2023-07-02T04:33:24;17.60;1.00
3794;DHT22;1912;51.358;12.282;2023-07-02T04:35:49;17.60;1.00
3794;DHT22;1912;51.358;12.282;2023-07-02T04:38:16;17.60;1.00
3794;DHT22;1912;51.358;12.282;2023-07-02T04:40:42;17.60;1.00
3794;DHT22;1912;51.358;12.282;2023-07-02T04:43:10;17.60;1.00
3794;DHT22;1912;51.358;12.282;2023-07-02T04:45:36;17.60;1.00
3794;DHT22;1912;51.358;12.282;2023-07-02T04:48:03;17.60;1.00
3794;DHT22;1912;51.358;12.282;2023-07-02T04:50:29;17.60;1.00
3794;DHT22;1912;51.358;12.282;2023-07-02T04:52:54;17.60;1.00
3794;DHT22;1912;51.358;12.282;2023-07-02T04:55:21;17.60;1.00
3794;DHT22;1912;51.358;12.282;2023-07-02T04:57:46;17.60;1.00
3794;DHT22;1912;51.358;12.282;2023-07-02T05:00:12;17.60;1.00
3794;DHT22;1912;51.358;12.282;2023-07-02T05:02:39;17.70;1.00
3794;DHT22;1912;51.358;12.282;2023-07-02T05:05:05;17.70;1.00
3794;DHT22;1912;51.358;12.282;2023-07-02T05:07:30;17.70;1.00
3794;DHT22;1912;51.358;12.282;2023-07-02T05:09:56;17.70;1.00
3794;DHT22;1912;51.358;12.282;2023-07-02T05:12:23;17.80;1.00
3794;DHT22;1912;51.358;12.282;2023-07-02T05:14:48;17.80;1.00
3794;DHT22;1912;51.358;12.282;2023-07-02T05:17:14;17.90;1.00
3794;DHT22;1912;51.358;12.282;2023-07-02T05:19:40;18.00;1.00
3794;DHT22;1912;51.358;12.282;2023-07-02T05:22:07;18.00;1.00
3794;DHT22;1912;51.358;12.282;2023-07-02T05:24:33;18.00;1.00
3794;DHT22;1912;51.358;12.282;2023-07-02T05:26:58;18.00;1.00
3794;DHT22;1912;51.358;12.282;2023-07-02T05:29:24;18.10;1.00
3794;DHT22;1912;51.358;12.282;2023-07-02T05:31:50;18.10;1.00
3794;DHT22;1912;51.358;12.282;2023-07-02T05:34:15;18.20;1.00
3794;DHT22;1912;51.358;12.282;2023-07-02T05:36:41;18.20;1.00
3794;DHT22;1912;51.358;12.282;2023-07-02T05:39:07;18.30;1.00
3794;DHT22;1912;51.358;12.282;2023-07-02T05:41:32;18.40;1.00
3794;DHT22;1912;51.358;12.282;2023-07-02T05:43:59;18.50;1.00
3794;DHT22;1912;51.358;12.282;2023-07-02T05:46:25;18.40;1.00
3794;DHT22;1912;51.358;12.282;2023-07-02T05:48:50;18.40;1.00
3794;DHT22;1912;51.358;12.282;2023-07-02T05:51:23;18.50;1.00
3794;DHT22;1912;51.358;12.282;2023-07-02T05:53:50;18.70;1.00
3794;DHT22;1912;51.358;12.282;2023-07-02T05:56:16;18.80;1.00
3794;DHT22;1912;51.358;12.282;2023-07-02T05:58:42;19.10;1.00
3794;DHT22;1912;51.358;12.282;2023-07-02T06:01:08;19.00;1.00
3794;DHT22;1912;51.358;12.282;2023-07-02T06:03:33;19.10;1.00
3794;DHT22;1912;51.358;12.282;2023-07-02T06:05:59;19.20;1.00
3794;DHT22;1912;51.358;12.282;2023-07-02T06:08:25;19.40;1.00
3794;DHT22;1912;51.358;12.282;2023-07-02T06:10:51;19.20;1.00
3794;DHT22;1912;51.358;12.282;2023-07-02T06:13:17;19.20;1.00
3794;DHT22;1912;51.358;12.282;2023-07-02T06:15:43;19.20;1.00
3794;DHT22;1912;51.358;12.282;2023-07-02T06:18:09;19.40;1.00
3794;DHT22;1912;51.358;12.282;2023-07-02T06:20:35;19.70;1.00
3794;DHT22;1912;51.358;12.282;2023-07-02T06:23:00;19.90;1.00
3794;DHT22;1912;51.358;12.282;2023-07-02T06:25:26;20.30;1.00
3794;DHT22;1912;51.358;12.282;2023-07-02T06:27:52;20.50;1.00
3794;DHT22;1912;51.358;12.282;2023-07-02T06:30:21;20.80;1.00
3794;DHT22;1912;51.358;12.282;2023-07-02T06:32:47;20.60;1.00
3794;DHT22;1912;51.358;12.282;2023-07-02T06:35:13;20.40;1.00
3794;DHT22;1912;51.358;12.282;2023-07-02T06:37:38;20.20;1.00
3794;DHT22;1912;51.358;12.282;2023-07-02T06:40:05;20.20;1.00
3794;DHT22;1912;51.358;12.282;2023-07-02T06:42:31;20.20;1.00
3794;DHT22;1912;51.358;12.282;2023-07-02T06:44:58;20.30;1.00
3794;DHT22;1912;51.358;12.282;2023-07-02T06:47:24;20.60;1.00
3794;DHT22;1912;51.358;12.282;2023-07-02T06:49:52;20.80;1.00
3794;DHT22;1912;51.358;12.282;2023-07-02T06:52:17;21.00;1.00
3794;DHT22;1912;51.358;12.282;2023-07-02T06:54:43;21.20;1.00
3794;DHT22;1912;51.358;12.282;2023-07-02T06:57:09;21.30;1.00
3794;DHT22;1912;51.358;12.282;2023-07-02T06:59:34;21.40;1.00
3794;DHT22;1912;51.358;12.282;2023-07-02T07:02:00;21.00;1.00
3794;DHT22;1912;51.358;12.282;2023-07-02T07:04:26;20.60;1.00
3794;DHT22;1912;51.358;12.282;2023-07-02T07:06:53;20.80;1.00
3794;DHT22;1912;51.358;12.282;2023-07-02T07:09:20;20.90;1.00
3794;DHT22;1912;51.358;12.282;2023-07-02T07:11:46;20.70;1.00
3794;DHT22;1912;51.358;12.282;2023-07-02T07:14:12;20.60;1.00
3794;DHT22;1912;51.358;12.282;2023-07-02T07:16:38;20.70;1.00
3794;DHT22;1912;51.358;12.282;2023-07-02T07:19:04;20.70;1.00
3794;DHT22;1912;51.358;12.282;2023-07-02T07:21:30;20.80;1.00
3794;DHT22;1912;51.358;12.282;2023-07-02T07:23:56;20.90;1.00
3794;DHT22;1912;51.358;12.282;2023-07-02T07:26:21;20.90;1.00
3794;DHT22;1912;51.358;12.282;2023-07-02T07:28:47;20.80;1.00
3794;DHT22;1912;51.358;12.282;2023-07-02T07:31:13;20.70;1.00
3794;DHT22;1912;51.358;12.282;2023-07-02T07:33:38;20.60;1.00
3794;DHT22;1912;51.358;12.282;2023-07-02T07:36:04;20.60;1.00
3794;DHT22;1912;51.358;12.282;2023-07-02T07:38:30;21.00;1.00
3794;DHT22;1912;51.358;12.282;2023-07-02T07:40:55;21.10;1.00
3794;DHT22;1912;51.358;12.282;2023-07-02T07:43:21;21.20;1.00
3794;DHT22;1912;51.358;12.282;2023-07-02T07:45:47;21.00;1.00
3794;DHT22;1912;51.358;12.282;2023-07-02T07:48:12;21.10;1.00
3794;DHT22;1912;51.358;12.282;2023-07-02T07:50:38;21.00;1.00
3794;DHT22;1912;51.358;12.282;2023-07-02T07:53:04;21.00;1.00
3794;DHT22;1912;51.358;12.282;2023-07-02T07:55:29;21.10;1.00
3794;DHT22;1912;51.358;12.282;2023-07-02T07:57:55;21.00;1.00
3794;DHT22;1912;51.358;12.282;2023-07-02T08:00:21;20.90;1.00
3794;DHT22;1912;51.358;12.282;2023-07-02T08:02:46;20.80;1.00
3794;DHT22;1912;51.358;12.282;2023-07-02T08:05:13;20.60;1.00
3794;DHT22;1912;51.358;12.282;2023-07-02T08:07:39;20.50;1.00
3794;DHT22;1912;51.358;12.282;2023-07-02T08:10:06;20.50;1.00
3794;DHT22;1912;51.358;12.282;2023-07-02T08:12:33;20.40;1.00
3794;DHT22;1912;51.358;12.282;2023-07-02T08:14:59;20.60;1.00
3794;DHT22;1912;51.358;12.282;2023-07-02T08:17:25;20.60;1.00
3794;DHT22;1912;51.358;12.282;2023-07-02T08:19:50;20.80;1.00
3794;DHT22;1912;51.358;12.282;2023-07-02T08:22:16;20.70;1.00
3794;DHT22;1912;51.358;12.282;2023-07-02T08:24:42;20.60;1.00
3794;DHT22;1912;51.358;12.282;2023-07-02T08:27:08;20.70;1.00
3794;DHT22;1912;51.358;12.282;2023-07-02T08:29:34;20.70;1.00
3794;DHT22;1912;51.358;12.282;2023-07-02T08:31:59;20.80;1.00
3794;DHT22;1912;51.358;12.282;2023-07-02T08:34:25;20.60;1.00
3794;DHT22;1912;51.358;12.282;2023-07-02T08:36:50;20.70;1.00
3794;DHT22;1912;51.358;12.282;2023-07-02T08:39:19;20.90;1.00
3794;DHT22;1912;51.358;12.282;2023-07-02T08:41:45;21.00;1.00
3794;DHT22;1912;51.358;12.282;2023-07-02T08:44:13;20.90;1.00
3794;DHT22;1912;51.358;12.282;2023-07-02T08:46:43;21.00;1.00
3794;DHT22;1912;51.358;12.282;2023-07-02T08:49:09;20.90;1.00
3794;DHT22;1912;51.358;12.282;2023-07-02T08:51:35;20.80;1.00
3794;DHT22;1912;51.358;12.282;2023-07-02T08:54:01;20.70;1.00
3794;DHT22;1912;51.358;12.282;2023-07-02T08:56:28;20.50;1.00
3794;DHT22;1912;51.358;12.282;2023-07-02T08:58:54;20.50;1.00
3794;DHT22;1912;51.358;12.282;2023-07-02T09:01:20;20.50;1.00
3794;DHT22;1912;51.358;12.282;2023-07-02T09:03:46;20.50;1.00
3794;DHT22;1912;51.358;12.282;2023-07-02T09:06:12;20.50;1.00
3794;DHT22;1912;51.358;12.282;2023-07-02T09:08:38;20.60;1.00
3794;DHT22;1912;51.358;12.282;2023-07-02T09:11:15;20.50;1.00
3794;DHT22;1912;51.358;12.282;2023-07-02T09:13:49;20.40;1.00
3794;DHT22;1912;51.358;12.282;2023-07-02T09:16:30;20.50;1.00
3794;DHT22;1912;51.358;12.282;2023-07-02T09:19:01;20.50;1.00
3794;DHT22;1912;51.358;12.282;2023-07-02T09:21:45;20.60;1.00
3794;DHT22;1912;51.358;12.282;2023-07-02T09:24:13;20.50;1.00
3794;DHT22;1912;51.358;12.282;2023-07-02T09:26:45;21.10;1.00
3794;DHT22;1912;51.358;12.282;2023-07-02T09:29:12;22.00;1.00
3794;DHT22;1912;51.358;12.282;2023-07-02T09:31:48;22.80;1.00
3794;DHT22;1912;51.358;12.282;2023-07-02T09:34:14;22.60;1.00
3794;DHT22;1912;51.358;12.282;2023-07-02T09:36:40;22.30;1.00
3794;DHT22;1912;51.358;12.282;2023-07-02T09:39:18;21.90;1.00
3794;DHT22;1912;51.358;12.282;2023-07-02T09:41:45;22.20;1.00
3794;DHT22;1912;51.358;12.282;2023-07-02T09:44:15;22.40;1.00
3794;DHT22;1912;51.358;12.282;2023-07-02T09:47:02;22.40;1.00
3794;DHT22;1912;51.358;12.282;2023-07-02T09:49:37;22.10;1.00
3794;DHT22;1912;51.358;12.282;2023-07-02T09:52:06;21.90;1.00
3794;DHT22;1912;51.358;12.282;2023-07-02T09:54:34;21.80;1.00
3794;DHT22;1912;51.358;12.282;2023-07-02T09:57:00;21.70;1.00
3794;DHT22;1912;51.358;12.282;2023-07-02T09:59:26;21.70;1.00
3794;DHT22;1912;51.358;12.282;2023-07-02T10:01:52;21.90;1.00
3794;DHT22;1912;51.358;12.282;2023-07-02T10:04:19;22.10;1.00
3794;DHT22;1912;51.358;12.282;2023-07-02T10:06:56;22.30;1.00
3794;DHT22;1912;51.358;12.282;2023-07-02T10:09:35;22.50;1.00
3794;DHT22;1912;51.358;12.282;2023-07-02T10:12:24;22.50;1.00
3794;DHT22;1912;51.358;12.282;2023-07-02T10:14:53;23.00;1.00
3794;DHT22;1912;51.358;12.282;2023-07-02T10:19:55;23.50;1.00
3794;DHT22;1912;51.358;12.282;2023-07-02T10:22:22;24.10;1.00
3794;DHT22;1912;51.358;12.282;2023-07-02T10:27:41;24.40;1.00
3794;DHT22;1912;51.358;12.282;2023-07-02T10:30:09;24.80;1.00
3794;DHT22;1912;51.358;12.282;2023-07-02T10:32:36;25.40;1.00
3794;DHT22;1912;51.358;12.282;2023-07-02T10:37:38;24.70;1.00
3794;DHT22;1912;51.358;12.282;2023-07-02T10:40:06;24.20;1.00
3794;DHT22;1912;51.358;12.282;2023-07-02T10:42:32;24.20;1.00
3794;DHT22;1912;51.358;12.282;2023-07-02T10:44:59;24.60;1.00
3794;DHT22;1912;51.358;12.282;2023-07-02T10:47:25;24.50;1.00
3794;DHT22;1912;51.358;12.282;2023-07-02T10:49:51;23.90;1.00
3794;DHT22;1912;51.358;12.282;2023-07-02T10:52:17;23.30;1.00
3794;DHT22;1912;51.358;12.282;2023-07-02T10:54:43;22.80;1.00
3794;DHT22;1912;51.358;12.282;2023-07-02T10:57:12;22.20;1.00
3794;DHT22;1912;51.358;12.282;2023-07-02T10:59:40;21.90;1.00
3794;DHT22;1912;51.358;12.282;2023-07-02T11:02:06;21.80;1.00
3794;DHT22;1912;51.358;12.282;2023-07-02T11:04:33;21.50;1.00
3794;DHT22;1912;51.358;12.282;2023-07-02T11:07:00;21.40;1.00
3794;DHT22;1912;51.358;12.282;2023-07-02T11:09:26;21.40;1.00
3794;DHT22;1912;51.358;12.282;2023-07-02T11:11:56;21.50;1.00
3794;DHT22;1912;51.358;12.282;2023-07-02T11:14:36;21.60;1.00
3794;DHT22;1912;51.358;12.282;2023-07-02T11:17:06;21.80;1.00
3794;DHT22;1912;51.358;12.282;2023-07-02T11:19:33;22.70;1.00
3794;DHT22;1912;51.358;12.282;2023-07-02T11:21:59;23.20;1.00
3794;DHT22;1912;51.358;12.282;2023-07-02T11:24:36;23.70;1.00
3794;DHT22;1912;51.358;12.282;2023-07-02T11:27:04;24.00;1.00
3794;DHT22;1912;51.358;12.282;2023-07-02T11:29:34;24.00;1.00
3794;DHT22;1912;51.358;12.282;2023-07-02T11:32:10;23.40;1.00
3794;DHT22;1912;51.358;12.282;2023-07-02T11:34:38;23.60;1.00
3794;DHT22;1912;51.358;12.282;2023-07-02T11:37:04;23.80;1.00
3794;DHT22;1912;51.358;12.282;2023-07-02T11:39:31;23.70;1.00
3794;DHT22;1912;51.358;12.282;2023-07-02T11:41:57;23.80;1.00
3794;DHT22;1912;51.358;12.282;2023-07-02T11:44:23;23.50;1.00
3794;DHT22;1912;51.358;12.282;2023-07-02T11:46:49;23.40;1.00
3794;DHT22;1912;51.358;12.282;2023-07-02T11:49:15;23.90;1.00
3794;DHT22;1912;51.358;12.282;2023-07-02T11:51:41;24.10;1.00
3794;DHT22;1912;51.358;12.282;2023-07-02T11:54:11;24.30;1.00
3794;DHT22;1912;51.358;12.282;2023-07-02T11:56:37;24.40;1.00
3794;DHT22;1912;51.358;12.282;2023-07-02T11:59:03;24.20;1.00
3794;DHT22;1912;51.358;12.282;2023-07-02T12:01:29;24.60;1.00
3794;DHT22;1912;51.358;12.282;2023-07-02T12:03:55;24.80;1.00
3794;DHT22;1912;51.358;12.282;2023-07-02T12:06:20;24.70;1.00
3794;DHT22;1912;51.358;12.282;2023-07-02T12:08:46;24.80;1.00
3794;DHT22;1912;51.358;12.282;2023-07-02T12:11:11;25.40;1.00
3794;DHT22;1912;51.358;12.282;2023-07-02T12:13:37;25.60;1.00
3794;DHT22;1912;51.358;12.282;2023-07-02T12:16:03;25.40;1.00
3794;DHT22;1912;51.358;12.282;2023-07-02T12:18:29;24.60;1.00
3794;DHT22;1912;51.358;12.282;2023-07-02T12:20:54;24.00;1.00
3794;DHT22;1912;51.358;12.282;2023-07-02T12:23:20;24.00;1.00
3794;DHT22;1912;51.358;12.282;2023-07-02T12:25:45;24.30;1.00
3794;DHT22;1912;51.358;12.282;2023-07-02T12:28:11;24.70;1.00
3794;DHT22;1912;51.358;12.282;2023-07-02T12:30:37;24.10;1.00
3794;DHT22;1912;51.358;12.282;2023-07-02T12:33:02;23.70;1.00
3794;DHT22;1912;51.358;12.282;2023-07-02T12:35:28;23.60;1.00
3794;DHT22;1912;51.358;12.282;2023-07-02T12:37:54;23.70;1.00
3794;DHT22;1912;51.358;12.282;2023-07-02T12:40:20;24.30;1.00
3794;DHT22;1912;51.358;12.282;2023-07-02T12:42:47;24.70;1.00
3794;DHT22;1912;51.358;12.282;2023-07-02T12:45:13;25.00;1.00
3794;DHT22;1912;51.358;12.282;2023-07-02T12:47:41;25.00;1.00
3794;DHT22;1912;51.358;12.282;2023-07-02T12:50:08;25.00;1.00
3794;DHT22;1912;51.358;12.282;2023-07-02T12:52:34;24.70;1.00
3794;DHT22;1912;51.358;12.282;2023-07-02T12:55:00;25.20;1.00
3794;DHT22;1912;51.358;12.282;2023-07-02T12:57:27;25.00;1.00
3794;DHT22;1912;51.358;12.282;2023-07-02T12:59:53;25.60;1.00
3794;DHT22;1912;51.358;12.282;2023-07-02T13:02:20;25.50;1.00
3794;DHT22;1912;51.358;12.282;2023-07-02T13:04:49;25.30;1.00
3794;DHT22;1912;51.358;12.282;2023-07-02T13:07:16;24.80;1.00
3794;DHT22;1912;51.358;12.282;2023-07-02T13:09:42;23.80;1.00
3794;DHT22;1912;51.358;12.282;2023-07-02T13:12:09;23.80;1.00
3794;DHT22;1912;51.358;12.282;2023-07-02T13:14:35;23.70;1.00
3794;DHT22;1912;51.358;12.282;2023-07-02T13:17:01;23.80;1.00
3794;DHT22;1912;51.358;12.282;2023-07-02T13:19:30;24.20;1.00
3794;DHT22;1912;51.358;12.282;2023-07-02T13:21:56;24.20;1.00
3794;DHT22;1912;51.358;12.282;2023-07-02T13:24:21;24.60;1.00
3794;DHT22;1912;51.358;12.282;2023-07-02T13:26:47;24.50;1.00
3794;DHT22;1912;51.358;12.282;2023-07-02T13:29:13;24.40;1.00
3794;DHT22;1912;51.358;12.282;2023-07-02T13:31:39;24.90;1.00
3794;DHT22;1912;51.358;12.282;2023-07-02T13:34:05;25.20;1.00
3794;DHT22;1912;51.358;12.282;2023-07-02T13:36:30;25.10;1.00
3794;DHT22;1912;51.358;12.282;2023-07-02T13:38:56;25.10;1.00
3794;DHT22;1912;51.358;12.282;2023-07-02T13:41:22;25.60;1.00
3794;DHT22;1912;51.358;12.282;2023-07-02T13:43:48;25.90;1.00
3794;DHT22;1912;51.358;12.282;2023-07-02T13:46:13;25.30;1.00
3794;DHT22;1912;51.358;12.282;2023-07-02T13:48:39;24.80;1.00
3794;DHT22;1912;51.358;12.282;2023-07-02T13:51:05;24.60;1.00
3794;DHT22;1912;51.358;12.282;2023-07-02T13:53:30;24.60;1.00
3794;DHT22;1912;51.358;12.282;2023-07-02T13:55:57;24.30;1.00
3794;DHT22;1912;51.358;12.282;2023-07-02T13:58:23;23.80;1.00
3794;DHT22;1912;51.358;12.282;2023-07-02T14:00:49;23.90;1.00
3794;DHT22;1912;51.358;12.282;2023-07-02T14:03:14;24.50;1.00
3794;DHT22;1912;51.358;12.282;2023-07-02T14:05:40;24.80;1.00
3794;DHT22;1912;51.358;12.282;2023-07-02T14:08:06;24.60;1.00
3794;DHT22;1912;51.358;12.282;2023-07-02T14:10:31;24.40;1.00
3794;DHT22;1912;51.358;12.282;2023-07-02T14:12:57;24.20;1.00
3794;DHT22;1912;51.358;12.282;2023-07-02T14:15:24;24.10;1.00
3794;DHT22;1912;51.358;12.282;2023-07-02T14:17:50;24.00;1.00
3794;DHT22;1912;51.358;12.282;2023-07-02T14:20:16;24.10;1.00
3794;DHT22;1912;51.358;12.282;2023-07-02T14:22:42;24.70;1.00
3794;DHT22;1912;51.358;12.282;2023-07-02T14:25:08;24.40;1.00
3794;DHT22;1912;51.358;12.282;2023-07-02T14:27:34;24.30;1.00
3794;DHT22;1912;51.358;12.282;2023-07-02T14:29:59;24.70;1.00
3794;DHT22;1912;51.358;12.282;2023-07-02T14:32:27;24.80;1.00
3794;DHT22;1912;51.358;12.282;2023-07-02T14:34:53;24.40;1.00
3794;DHT22;1912;51.358;12.282;2023-07-02T14:37:19;24.00;1.00
3794;DHT22;1912;51.358;12.282;2023-07-02T14:39:44;24.10;1.00
3794;DHT22;1912;51.358;12.282;2023-07-02T14:42:10;24.00;1.00
3794;DHT22;1912;51.358;12.282;2023-07-02T14:44:36;23.80;1.00
3794;DHT22;1912;51.358;12.282;2023-07-02T14:47:01;23.90;1.00
3794;DHT22;1912;51.358;12.282;2023-07-02T14:49:27;24.10;1.00
3794;DHT22;1912;51.358;12.282;2023-07-02T14:51:53;24.70;1.00
3794;DHT22;1912;51.358;12.282;2023-07-02T14:54:18;25.10;1.00
3794;DHT22;1912;51.358;12.282;2023-07-02T14:56:44;24.70;1.00
3794;DHT22;1912;51.358;12.282;2023-07-02T14:59:10;24.50;1.00
3794;DHT22;1912;51.358;12.282;2023-07-02T15:01:35;24.40;1.00
3794;DHT22;1912;51.358;12.282;2023-07-02T15:04:01;24.40;1.00
3794;DHT22;1912;51.358;12.282;2023-07-02T15:06:27;24.10;1.00
3794;DHT22;1912;51.358;12.282;2023-07-02T15:08:52;23.80;1.00
3794;DHT22;1912;51.358;12.282;2023-07-02T15:11:18;23.90;1.00
3794;DHT22;1912;51.358;12.282;2023-07-02T15:13:44;24.40;1.00
3794;DHT22;1912;51.358;12.282;2023-07-02T15:16:11;24.50;1.00
3794;DHT22;1912;51.358;12.282;2023-07-02T15:18:37;24.30;1.00
3794;DHT22;1912;51.358;12.282;2023-07-02T15:21:04;24.10;1.00
3794;DHT22;1912;51.358;12.282;2023-07-02T15:23:30;24.30;1.00
3794;DHT22;1912;51.358;12.282;2023-07-02T15:26:00;24.20;1.00
3794;DHT22;1912;51.358;12.282;2023-07-02T15:28:28;24.10;1.00
3794;DHT22;1912;51.358;12.282;2023-07-02T15:31:00;23.90;1.00
3794;DHT22;1912;51.358;12.282;2023-07-02T15:33:31;23.80;1.00
3794;DHT22;1912;51.358;12.282;2023-07-02T15:35:59;24.30;1.00
3794;DHT22;1912;51.358;12.282;2023-07-02T15:38:26;24.50;1.00
3794;DHT22;1912;51.358;12.282;2023-07-02T15:41:08;24.50;1.00
3794;DHT22;1912;51.358;12.282;2023-07-02T15:43:39;24.60;1.00
3794;DHT22;1912;51.358;12.282;2023-07-02T15:46:05;24.50;1.00
3794;DHT22;1912;51.358;12.282;2023-07-02T15:48:31;24.60;1.00
3794;DHT22;1912;51.358;12.282;2023-07-02T15:50:57;24.80;1.00
3794;DHT22;1912;51.358;12.282;2023-07-02T15:53:23;25.50;1.00
3794;DHT22;1912;51.358;12.282;2023-07-02T15:55:54;25.70;1.00
3794;DHT22;1912;51.358;12.282;2023-07-02T15:58:22;25.40;1.00
3794;DHT22;1912;51.358;12.282;2023-07-02T16:00:48;25.10;1.00
3794;DHT22;1912;51.358;12.282;2023-07-02T16:03:14;24.70;1.00
3794;DHT22;1912;51.358;12.282;2023-07-02T16:05:39;24.70;1.00
3794;DHT22;1912;51.358;12.282;2023-07-02T16:08:05;25.00;1.00
3794;DHT22;1912;51.358;12.282;2023-07-02T16:10:31;24.70;1.00
3794;DHT22;1912;51.358;12.282;2023-07-02T16:12:57;24.70;1.00
3794;DHT22;1912;51.358;12.282;2023-07-02T16:15:25;24.70;1.00
3794;DHT22;1912;51.358;12.282;2023-07-02T16:17:51;25.10;1.00
3794;DHT22;1912;51.358;12.282;2023-07-02T16:20:19;25.10;1.00
3794;DHT22;1912;51.358;12.282;2023-07-02T16:22:45;24.90;1.00
3794;DHT22;1912;51.358;12.282;2023-07-02T16:25:11;25.40;1.00
3794;DHT22;1912;51.358;12.282;2023-07-02T16:27:36;25.20;1.00
3794;DHT22;1912;51.358;12.282;2023-07-02T16:30:03;25.40;1.00
3794;DHT22;1912;51.358;12.282;2023-07-02T16:32:29;25.70;1.00
3794;DHT22;1912;51.358;12.282;2023-07-02T16:34:57;25.50;1.00
3794;DHT22;1912;51.358;12.282;2023-07-02T16:37:22;25.10;1.00
3794;DHT22;1912;51.358;12.282;2023-07-02T16:39:48;25.30;1.00
3794;DHT22;1912;51.358;12.282;2023-07-02T16:42:14;25.00;1.00
3794;DHT22;1912;51.358;12.282;2023-07-02T16:44:39;25.30;1.00
3794;DHT22;1912;51.358;12.282;2023-07-02T16:47:05;25.30;1.00
3794;DHT22;1912;51.358;12.282;2023-07-02T16:49:31;25.70;1.00
3794;DHT22;1912;51.358;12.282;2023-07-02T16:51:57;25.20;1.00
3794;DHT22;1912;51.358;12.282;2023-07-02T16:54:24;25.00;1.00
3794;DHT22;1912;51.358;12.282;2023-07-02T16:56:56;24.70;1.00
3794;DHT22;1912;51.358;12.282;2023-07-02T16:59:25;24.70;1.00
3794;DHT22;1912;51.358;12.282;2023-07-02T17:01:56;24.40;1.00
3794;DHT22;1912;51.358;12.282;2023-07-02T17:04:24;24.00;1.00
3794;DHT22;1912;51.358;12.282;2023-07-02T17:06:53;24.30;1.00
3794;DHT22;1912;51.358;12.282;2023-07-02T17:09:31;24.10;1.00
3794;DHT22;1912;51.358;12.282;2023-07-02T17:12:10;24.10;1.00
3794;DHT22;1912;51.358;12.282;2023-07-02T17:14:39;24.00;1.00
3794;DHT22;1912;51.358;12.282;2023-07-02T17:17:11;23.80;1.00
3794;DHT22;1912;51.358;12.282;2023-07-02T17:19:46;23.70;1.00
3794;DHT22;1912;51.358;12.282;2023-07-02T17:22:23;23.40;1.00
3794;DHT22;1912;51.358;12.282;2023-07-02T17:24:52;23.40;1.00
3794;DHT22;1912;51.358;12.282;2023-07-02T17:27:21;23.20;1.00
3794;DHT22;1912;51.358;12.282;2023-07-02T17:29:59;23.20;1.00
3794;DHT22;1912;51.358;12.282;2023-07-02T17:32:27;23.20;1.00
3794;DHT22;1912;51.358;12.282;2023-07-02T17:34:53;23.30;1.00
3794;DHT22;1912;51.358;12.282;2023-07-02T17:37:19;23.30;1.00
3794;DHT22;1912;51.358;12.282;2023-07-02T17:39:46;23.40;1.00
3794;DHT22;1912;51.358;12.282;2023-07-02T17:42:13;23.40;1.00
3794;DHT22;1912;51.358;12.282;2023-07-02T17:44:41;23.30;1.00
3794;DHT22;1912;51.358;12.282;2023-07-02T17:47:11;23.20;1.00
3794;DHT22;1912;51.358;12.282;2023-07-02T17:49:44;23.10;1.00
3794;DHT22;1912;51.358;12.282;2023-07-02T17:52:13;22.90;1.00
3794;DHT22;1912;51.358;12.282;2023-07-02T17:54:45;23.00;1.00
3794;DHT22;1912;51.358;12.282;2023-07-02T17:57:14;22.90;1.00
3794;DHT22;1912;51.358;12.282;2023-07-02T17:59:41;22.80;1.00
3794;DHT22;1912;51.358;12.282;2023-07-02T18:02:08;22.90;1.00
3794;DHT22;1912;51.358;12.282;2023-07-02T18:04:35;22.80;1.00
3794;DHT22;1912;51.358;12.282;2023-07-02T18:07:04;22.80;1.00
3794;DHT22;1912;51.358;12.282;2023-07-02T18:09:31;22.80;1.00
3794;DHT22;1912;51.358;12.282;2023-07-02T18:11:57;22.90;1.00
3794;DHT22;1912;51.358;12.282;2023-07-02T18:14:23;22.90;1.00
3794;DHT22;1912;51.358;12.282;2023-07-02T18:16:54;22.70;1.00
3794;DHT22;1912;51.358;12.282;2023-07-02T18:19:23;22.60;1.00
3794;DHT22;1912;51.358;12.282;2023-07-02T18:21:56;22.60;1.00
3794;DHT22;1912;51.358;12.282;2023-07-02T18:24:27;22.40;1.00
3794;DHT22;1912;51.358;12.282;2023-07-02T18:26:53;22.40;1.00
3794;DHT22;1912;51.358;12.282;2023-07-02T18:29:19;22.30;1.00
3794;DHT22;1912;51.358;12.282;2023-07-02T18:31:45;22.20;1.00
3794;DHT22;1912;51.358;12.282;2023-07-02T18:34:11;22.00;1.00
3794;DHT22;1912;51.358;12.282;2023-07-02T18:36:37;22.10;1.00
3794;DHT22;1912;51.358;12.282;2023-07-02T18:39:03;22.00;1.00
3794;DHT22;1912;51.358;12.282;2023-07-02T18:41:30;22.10;1.00
3794;DHT22;1912;51.358;12.282;2023-07-02T18:43:59;22.00;1.00
3794;DHT22;1912;51.358;12.282;2023-07-02T18:46:25;21.90;1.00
3794;DHT22;1912;51.358;12.282;2023-07-02T18:48:50;21.80;1.00
3794;DHT22;1912;51.358;12.282;2023-07-02T18:51:16;21.70;1.00
3794;DHT22;1912;51.358;12.282;2023-07-02T18:53:42;21.70;1.00
3794;DHT22;1912;51.358;12.282;2023-07-02T18:56:07;21.50;1.00
3794;DHT22;1912;51.358;12.282;2023-07-02T18:58:34;21.40;1.00
3794;DHT22;1912;51.358;12.282;2023-07-02T19:01:10;21.30;1.00
3794;DHT22;1912;51.358;12.282;2023-07-02T19:03:38;21.30;1.00
3794;DHT22;1912;51.358;12.282;2023-07-02T19:06:08;21.20;1.00
3794;DHT22;1912;51.358;12.282;2023-07-02T19:08:35;21.20;1.00
3794;DHT22;1912;51.358;12.282;2023-07-02T19:11:03;21.10;1.00
3794;DHT22;1912;51.358;12.282;2023-07-02T19:13:29;21.00;1.00
3794;DHT22;1912;51.358;12.282;2023-07-02T19:15:55;21.00;1.00
3794;DHT22;1912;51.358;12.282;2023-07-02T19:18:21;20.90;1.00
3794;DHT22;1912;51.358;12.282;2023-07-02T19:20:47;20.80;1.00
3794;DHT22;1912;51.358;12.282;2023-07-02T19:23:14;20.80;1.00
3794;DHT22;1912;51.358;12.282;2023-07-02T19:25:40;20.70;1.00
3794;DHT22;1912;51.358;12.282;2023-07-02T19:28:06;20.60;1.00
3794;DHT22;1912;51.358;12.282;2023-07-02T19:30:31;20.50;1.00
3794;DHT22;1912;51.358;12.282;2023-07-02T19:32:57;20.40;1.00
3794;DHT22;1912;51.358;12.282;2023-07-02T19:35:23;20.20;1.00
3794;DHT22;1912;51.358;12.282;2023-07-02T19:37:50;20.20;1.00
3794;DHT22;1912;51.358;12.282;2023-07-02T19:40:16;20.10;1.00
3794;DHT22;1912;51.358;12.282;2023-07-02T19:42:41;20.10;1.00
3794;DHT22;1912;51.358;12.282;2023-07-02T19:45:07;20.00;1.00
3794;DHT22;1912;51.358;12.282;2023-07-02T19:47:33;20.00;1.00
3794;DHT22;1912;51.358;12.282;2023-07-02T19:50:00;20.10;1.00
3794;DHT22;1912;51.358;12.282;2023-07-02T19:52:28;20.10;1.00
3794;DHT22;1912;51.358;12.282;2023-07-02T19:54:57;20.10;1.00